sensor_id;sensor_type;location;lat;lon;timestamp;temperature;humidity
22984;DHT22;11658;48.908;9.140;2023-02-20T04:04:13;6.80;99.90
22984;DHT22;11658;48.908;9.140;2023-02-20T04:06:42;6.90;99.90
22984;DHT22;11658;48.908;9.140;2023-02-20T04:09:11;6.90;99.90
22984;DHT22;11658;48.908;9.140;2023-02-20T04:11:44;7.00;99.90
22984;DHT22;11658;48.908;9.140;2023-02-20T04:14:11;7.00;99.90
22984;DHT22;11658;48.908;9.140;2023-02-20T04:16:43;7.10;99.90
22984;DHT22;11658;48.908;9.140;2023-02-20T04:19:10;7.20;99.90
22984;DHT22;11658;48.908;9.140;2023-02-20T04:21:44;7.10;99.90
22984;DHT22;11658;48.908;9.140;2023-02-20T04:24:15;7.10;99.90
22984;DHT22;11658;48.908;9.140;2023-02-20T04:26:42;7.00;99.90
22984;DHT22;11658;48.908;9.140;2023-02-20T04:29:08;7.00;99.90
22984;DHT22;11658;48.908;9.140;2023-02-20T04:31:34;6.90;99.90
22984;DHT22;11658;48.908;9.140;2023-02-20T04:34:00;6.80;99.90
22984;DHT22;11658;48.908;9.140;2023-02-20T04:36:26;6.70;99.90
22984;DHT22;11658;48.908;9.140;2023-02-20T04:38:52;6.70;99.90
22984;DHT22;11658;48.908;9.140;2023-02-20T04:41:17;6.60;99.90
22984;DHT22;11658;48.908;9.140;2023-02-20T04:43:43;6.50;99.90
22984;DHT22;11658;48.908;9.140;2023-02-20T04:46:08;6.50;99.90
22984;DHT22;11658;48.908;9.140;2023-02-20T04:48:34;6.40;99.90
22984;DHT22;11658;48.908;9.140;2023-02-20T04:51:00;6.40;99.90
22984;DHT22;11658;48.908;9.140;2023-02-20T04:53:25;6.40;99.90
22984;DHT22;11658;48.908;9.140;2023-02-20T04:55:51;6.40;99.90
22984;DHT22;11658;48.908;9.140;2023-02-20T04:58:16;6.30;99.90
22984;DHT22;11658;48.908;9.140;2023-02-20T05:00:42;6.30;99.90
22984;DHT22;11658;48.908;9.140;2023-02-20T05:03:07;6.30;99.90
22984;DHT22;11658;48.908;9.140;2023-02-20T05:05:33;6.30;99.90
22984;DHT22;11658;48.908;9.140;2023-02-20T05:08:02;6.20;99.90
22984;DHT22;11658;48.908;9.140;2023-02-20T05:10:30;6.20;99.90
22984;DHT22;11658;48.908;9.140;2023-02-20T05:12:57;6.10;99.90
22984;DHT22;11658;48.908;9.140;2023-02-20T05:15:24;6.00;99.90
22984;DHT22;11658;48.908;9.140;2023-02-20T05:17:49;6.00;99.90
22984;DHT22;11658;48.908;9.140;2023-02-20T05:20:16;5.90;99.90
22984;DHT22;11658;48.908;9.140;2023-02-20T05:22:47;5.80;99.90
22984;DHT22;11658;48.908;9.140;2023-02-20T05:25:14;5.80;99.90
22984;DHT22;11658;48.908;9.140;2023-02-20T05:27:40;5.70;99.90
22984;DHT22;11658;48.908;9.140;2023-02-20T05:30:07;5.60;99.90
22984;DHT22;11658;48.908;9.140;2023-02-20T05:32:33;5.70;99.90
22984;DHT22;11658;48.908;9.140;2023-02-20T05:34:59;5.70;99.90
22984;DHT22;11658;48.908;9.140;2023-02-20T05:37:26;5.70;99.90
22984;DHT22;11658;48.908;9.140;2023-02-20T05:39:52;5.70;99.90
22984;DHT22;11658;48.908;9.140;2023-02-20T05:42:17;5.70;99.90
22984;DHT22;11658;48.908;9.140;2023-02-20T05:44:43;5.70;99.90
22984;DHT22;11658;48.908;9.140;2023-02-20T05:47:09;5.70;99.90
22984;DHT22;11658;48.908;9.140;2023-02-20T05:49:36;5.60;99.90
22984;DHT22;11658;48.908;9.140;2023-02-20T05:52:02;5.60;99.90
22984;DHT22;11658;48.908;9.140;2023-02-20T05:54:34;5.70;99.90
22984;DHT22;11658;48.908;9.140;2023-02-20T05:57:00;5.70;99.90
22984;DHT22;11658;48.908;9.140;2023-02-20T05:59:25;5.60;99.90
22984;DHT22;11658;48.908;9.140;2023-02-20T06:01:56;5.60;99.90
22984;DHT22;11658;48.908;9.140;2023-02-20T06:04:22;5.50;99.90
22984;DHT22;11658;48.908;9.140;2023-02-20T06:06:47;5.50;99.90
22984;DHT22;11658;48.908;9.140;2023-02-20T06:09:13;5.40;99.90
22984;DHT22;11658;48.908;9.140;2023-02-20T06:11:52;5.40;99.90
22984;DHT22;11658;48.908;9.140;2023-02-20T06:14:19;5.50;99.90
22984;DHT22;11658;48.908;9.140;2023-02-20T06:16:45;5.50;99.90
22984;DHT22;11658;48.908;9.140;2023-02-20T06:19:13;5.40;99.90
22984;DHT22;11658;48.908;9.140;2023-02-20T06:21:44;5.40;99.90
22984;DHT22;11658;48.908;9.140;2023-02-20T06:24:10;5.40;99.90
22984;DHT22;11658;48.908;9.140;2023-02-20T06:26:39;5.40;99.90
22984;DHT22;11658;48.908;9.140;2023-02-20T06:29:05;5.40;99.90
22984;DHT22;11658;48.908;9.140;2023-02-20T06:31:30;5.40;99.90
22984;DHT22;11658;48.908;9.140;2023-02-20T06:33:56;5.40;99.90
22984;DHT22;11658;48.908;9.140;2023-02-20T06:36:27;5.40;99.90
22984;DHT22;11658;48.908;9.140;2023-02-20T06:38:54;5.40;99.90
22984;DHT22;11658;48.908;9.140;2023-02-20T06:41:19;5.40;99.90
22984;DHT22;11658;48.908;9.140;2023-02-20T06:43:45;5.50;99.90
22984;DHT22;11658;48.908;9.140;2023-02-20T06:46:10;5.50;99.90
22984;DHT22;11658;48.908;9.140;2023-02-20T06:48:47;5.60;99.90
22984;DHT22;11658;48.908;9.140;2023-02-20T06:51:25;5.60;99.90
22984;DHT22;11658;48.908;9.140;2023-02-20T06:53:51;5.70;99.90
22984;DHT22;11658;48.908;9.140;2023-02-20T06:56:19;5.70;99.90
22984;DHT22;11658;48.908;9.140;2023-02-20T06:58:46;5.60;99.90
22984;DHT22;11658;48.908;9.140;2023-02-20T07:01:12;5.60;99.90
22984;DHT22;11658;48.908;9.140;2023-02-20T07:03:38;5.60;99.90
22984;DHT22;11658;48.908;9.140;2023-02-20T07:06:04;5.60;99.90
22984;DHT22;11658;48.908;9.140;2023-02-20T07:08:29;5.60;99.90
22984;DHT22;11658;48.908;9.140;2023-02-20T07:10:55;5.60;99.90
22984;DHT22;11658;48.908;9.140;2023-02-20T07:13:21;5.70;99.90
22984;DHT22;11658;48.908;9.140;2023-02-20T07:15:47;5.80;99.90
22984;DHT22;11658;48.908;9.140;2023-02-20T07:18:13;5.80;99.90
22984;DHT22;11658;48.908;9.140;2023-02-20T07:20:39;5.80;99.90
22984;DHT22;11658;48.908;9.140;2023-02-20T07:23:04;5.90;99.90
22984;DHT22;11658;48.908;9.140;2023-02-20T07:25:30;6.00;99.90
22984;DHT22;11658;48.908;9.140;2023-02-20T07:27:56;6.00;99.90
22984;DHT22;11658;48.908;9.140;2023-02-20T07:30:21;6.10;99.90
22984;DHT22;11658;48.908;9.140;2023-02-20T07:32:49;6.20;99.90
22984;DHT22;11658;48.908;9.140;2023-02-20T07:35:15;6.30;99.90
22984;DHT22;11658;48.908;9.140;2023-02-20T07:37:40;6.50;99.90
22984;DHT22;11658;48.908;9.140;2023-02-20T07:40:07;6.60;99.90
22984;DHT22;11658;48.908;9.140;2023-02-20T07:42:32;6.60;99.90
22984;DHT22;11658;48.908;9.140;2023-02-20T07:44:58;6.70;99.90
22984;DHT22;11658;48.908;9.140;2023-02-20T07:47:23;6.80;99.90
22984;DHT22;11658;48.908;9.140;2023-02-20T07:49:49;7.00;99.90
22984;DHT22;11658;48.908;9.140;2023-02-20T07:52:15;7.00;99.90
22984;DHT22;11658;48.908;9.140;2023-02-20T07:54:40;7.00;99.90
22984;DHT22;11658;48.908;9.140;2023-02-20T07:57:07;7.10;99.90
22984;DHT22;11658;48.908;9.140;2023-02-20T07:59:33;7.10;99.90
22984;DHT22;11658;48.908;9.140;2023-02-20T08:01:59;7.10;99.90
22984;DHT22;11658;48.908;9.140;2023-02-20T08:04:24;7.20;99.90
22984;DHT22;11658;48.908;9.140;2023-02-20T08:06:50;7.40;99.90
22984;DHT22;11658;48.908;9.140;2023-02-20T08:09:15;7.40;99.90
22984;DHT22;11658;48.908;9.140;2023-02-20T08:11:41;7.40;99.90
22984;DHT22;11658;48.908;9.140;2023-02-20T08:14:07;7.50;99.90
22984;DHT22;11658;48.908;9.140;2023-02-20T08:16:32;7.60;99.90
22984;DHT22;11658;48.908;9.140;2023-02-20T08:18:58;7.60;99.90
22984;DHT22;11658;48.908;9.140;2023-02-20T08:21:24;7.80;99.90
22984;DHT22;11658;48.908;9.140;2023-02-20T08:23:50;7.90;99.90
22984;DHT22;11658;48.908;9.140;2023-02-20T08:26:17;8.00;99.90
22984;DHT22;11658;48.908;9.140;2023-02-20T08:28:43;8.00;99.90
22984;DHT22;11658;48.908;9.140;2023-02-20T08:31:10;8.10;99.90
22984;DHT22;11658;48.908;9.140;2023-02-20T08:33:36;8.10;99.90
22984;DHT22;11658;48.908;9.140;2023-02-20T08:36:01;8.20;99.90
22984;DHT22;11658;48.908;9.140;2023-02-20T08:38:32;8.20;99.90
22984;DHT22;11658;48.908;9.140;2023-02-20T08:41:01;8.20;99.90
22984;DHT22;11658;48.908;9.140;2023-02-20T08:43:27;8.40;99.90
22984;DHT22;11658;48.908;9.140;2023-02-20T08:45:53;8.50;99.90
22984;DHT22;11658;48.908;9.140;2023-02-20T08:48:18;8.60;99.90
22984;DHT22;11658;48.908;9.140;2023-02-20T08:50:44;8.70;99.90
22984;DHT22;11658;48.908;9.140;2023-02-20T08:53:12;8.80;99.90
22984;DHT22;11658;48.908;9.140;2023-02-20T08:55:37;8.80;99.90
22984;DHT22;11658;48.908;9.140;2023-02-20T08:58:03;8.90;99.90
22984;DHT22;11658;48.908;9.140;2023-02-20T09:00:29;9.10;99.90
22984;DHT22;11658;48.908;9.140;2023-02-20T09:02:54;9.10;99.90
22984;DHT22;11658;48.908;9.140;2023-02-20T09:05:20;9.10;99.90
22984;DHT22;11658;48.908;9.140;2023-02-20T09:07:46;9.20;99.90
22984;DHT22;11658;48.908;9.140;2023-02-20T09:10:11;9.40;99.90
22984;DHT22;11658;48.908;9.140;2023-02-20T09:12:37;9.70;99.90
22984;DHT22;11658;48.908;9.140;2023-02-20T09:15:07;10.10;99.90
22984;DHT22;11658;48.908;9.140;2023-02-20T09:17:33;10.40;99.90
22984;DHT22;11658;48.908;9.140;2023-02-20T09:19:58;10.70;99.90
22984;DHT22;11658;48.908;9.140;2023-02-20T09:22:25;10.50;99.90
22984;DHT22;11658;48.908;9.140;2023-02-20T09:24:52;10.50;99.90
22984;DHT22;11658;48.908;9.140;2023-02-20T09:27:19;10.60;99.90
22984;DHT22;11658;48.908;9.140;2023-02-20T09:29:44;10.60;99.90
22984;DHT22;11658;48.908;9.140;2023-02-20T09:32:11;10.80;99.90
22984;DHT22;11658;48.908;9.140;2023-02-20T09:34:36;10.90;99.90
22984;DHT22;11658;48.908;9.140;2023-02-20T09:37:02;11.10;99.90
22984;DHT22;11658;48.908;9.140;2023-02-20T09:39:29;11.20;99.90
22984;DHT22;11658;48.908;9.140;2023-02-20T09:44:54;11.20;99.90
22984;DHT22;11658;48.908;9.140;2023-02-20T09:50:05;11.30;99.90
22984;DHT22;11658;48.908;9.140;2023-02-20T09:52:33;11.40;99.90
22984;DHT22;11658;48.908;9.140;2023-02-20T09:55:12;11.30;99.90
22984;DHT22;11658;48.908;9.140;2023-02-20T09:57:39;11.40;99.90
22984;DHT22;11658;48.908;9.140;2023-02-20T10:00:13;11.20;99.90
22984;DHT22;11658;48.908;9.140;2023-02-20T10:02:49;11.20;99.90
22984;DHT22;11658;48.908;9.140;2023-02-20T10:05:20;11.10;99.90
22984;DHT22;11658;48.908;9.140;2023-02-20T10:07:48;11.30;99.90
22984;DHT22;11658;48.908;9.140;2023-02-20T10:10:27;11.40;99.90
22984;DHT22;11658;48.908;9.140;2023-02-20T10:21:10;10.80;99.90
22984;DHT22;11658;48.908;9.140;2023-02-20T10:23:51;10.80;99.90
22984;DHT22;11658;48.908;9.140;2023-02-20T10:26:25;11.00;99.90
22984;DHT22;11658;48.908;9.140;2023-02-20T10:28:51;11.20;99.90
22984;DHT22;11658;48.908;9.140;2023-02-20T10:31:36;11.40;99.90
22984;DHT22;11658;48.908;9.140;2023-02-20T10:34:27;11.50;99.90
22984;DHT22;11658;48.908;9.140;2023-02-20T10:37:04;11.50;99.90
22984;DHT22;11658;48.908;9.140;2023-02-20T10:39:33;11.60;99.90
22984;DHT22;11658;48.908;9.140;2023-02-20T10:47:49;11.70;99.90
22984;DHT22;11658;48.908;9.140;2023-02-20T10:58:23;12.00;99.90
22984;DHT22;11658;48.908;9.140;2023-02-20T11:00:57;12.10;99.90
22984;DHT22;11658;48.908;9.140;2023-02-20T11:05:58;12.10;99.90
22984;DHT22;11658;48.908;9.140;2023-02-20T11:08:26;12.00;99.90
22984;DHT22;11658;48.908;9.140;2023-02-20T11:10:58;12.00;99.90
22984;DHT22;11658;48.908;9.140;2023-02-20T11:13:24;11.90;99.90
22984;DHT22;11658;48.908;9.140;2023-02-20T11:15:53;11.90;99.90
22984;DHT22;11658;48.908;9.140;2023-02-20T11:18:24;12.00;99.90
22984;DHT22;11658;48.908;9.140;2023-02-20T11:20:53;12.10;99.90
22984;DHT22;11658;48.908;9.140;2023-02-20T11:23:39;12.20;99.90
22984;DHT22;11658;48.908;9.140;2023-02-20T11:31:35;12.20;99.90
22984;DHT22;11658;48.908;9.140;2023-02-20T11:34:03;12.30;99.90
22984;DHT22;11658;48.908;9.140;2023-02-20T11:36:38;12.40;99.90
22984;DHT22;11658;48.908;9.140;2023-02-20T11:39:27;12.50;99.90
22984;DHT22;11658;48.908;9.140;2023-02-20T11:44:33;12.60;99.90
22984;DHT22;11658;48.908;9.140;2023-02-20T11:47:18;12.70;99.90
22984;DHT22;11658;48.908;9.140;2023-02-20T11:49:46;12.70;99.90
22984;DHT22;11658;48.908;9.140;2023-02-20T11:54:43;12.70;99.90
22984;DHT22;11658;48.908;9.140;2023-02-20T11:59:46;13.10;99.90
22984;DHT22;11658;48.908;9.140;2023-02-20T12:05:03;13.00;99.90
22984;DHT22;11658;48.908;9.140;2023-02-20T12:07:40;13.00;99.90
22984;DHT22;11658;48.908;9.140;2023-02-20T12:10:26;13.00;99.90
22984;DHT22;11658;48.908;9.140;2023-02-20T12:12:53;12.90;99.90
22984;DHT22;11658;48.908;9.140;2023-02-20T12:15:23;13.10;99.90
22984;DHT22;11658;48.908;9.140;2023-02-20T12:20:33;13.40;99.90
22984;DHT22;11658;48.908;9.140;2023-02-20T12:28:57;13.20;99.90
22984;DHT22;11658;48.908;9.140;2023-02-20T12:34:15;13.20;99.90
22984;DHT22;11658;48.908;9.140;2023-02-20T12:42:17;13.40;99.90
22984;DHT22;11658;48.908;9.140;2023-02-20T12:47:20;13.70;99.90
22984;DHT22;11658;48.908;9.140;2023-02-20T12:50:17;13.80;99.90
22984;DHT22;11658;48.908;9.140;2023-02-20T12:55:37;13.70;99.90
22984;DHT22;11658;48.908;9.140;2023-02-20T13:01:02;13.80;99.90
22984;DHT22;11658;48.908;9.140;2023-02-20T13:06:17;13.70;99.90
22984;DHT22;11658;48.908;9.140;2023-02-20T13:09:08;13.80;99.90
22984;DHT22;11658;48.908;9.140;2023-02-20T13:11:40;14.10;99.90
22984;DHT22;11658;48.908;9.140;2023-02-20T13:19:42;14.30;99.90
22984;DHT22;11658;48.908;9.140;2023-02-20T13:22:10;14.20;99.90
22984;DHT22;11658;48.908;9.140;2023-02-20T13:24:38;14.40;99.90
22984;DHT22;11658;48.908;9.140;2023-02-20T13:27:09;14.30;99.90
22984;DHT22;11658;48.908;9.140;2023-02-20T13:30:17;14.20;99.90
22984;DHT22;11658;48.908;9.140;2023-02-20T13:32:44;14.10;99.90
22984;DHT22;11658;48.908;9.140;2023-02-20T13:35:32;14.20;99.90
22984;DHT22;11658;48.908;9.140;2023-02-20T13:38:12;14.30;99.90
22984;DHT22;11658;48.908;9.140;2023-02-20T13:41:03;14.40;99.90
22984;DHT22;11658;48.908;9.140;2023-02-20T13:43:37;14.60;99.90
22984;DHT22;11658;48.908;9.140;2023-02-20T13:59:09;14.50;99.90
22984;DHT22;11658;48.908;9.140;2023-02-20T14:01:56;14.50;99.90
22984;DHT22;11658;48.908;9.140;2023-02-20T14:04:22;14.60;99.90
22984;DHT22;11658;48.908;9.140;2023-02-20T14:06:53;14.60;99.90
22984;DHT22;11658;48.908;9.140;2023-02-20T14:09:26;14.50;99.90
22984;DHT22;11658;48.908;9.140;2023-02-20T14:12:06;14.50;99.90
22984;DHT22;11658;48.908;9.140;2023-02-20T14:14:40;14.60;99.90
22984;DHT22;11658;48.908;9.140;2023-02-20T14:17:20;14.50;99.90
22984;DHT22;11658;48.908;9.140;2023-02-20T14:19:53;14.30;99.90
22984;DHT22;11658;48.908;9.140;2023-02-20T14:24:46;14.40;99.90
22984;DHT22;11658;48.908;9.140;2023-02-20T14:27:26;14.40;99.90
22984;DHT22;11658;48.908;9.140;2023-02-20T14:32:45;14.40;99.90
22984;DHT22;11658;48.908;9.140;2023-02-20T14:35:38;14.30;99.90
22984;DHT22;11658;48.908;9.140;2023-02-20T14:40:47;14.20;99.90
22984;DHT22;11658;48.908;9.140;2023-02-20T14:43:20;14.30;99.90
22984;DHT22;11658;48.908;9.140;2023-02-20T14:45:57;14.20;99.90
22984;DHT22;11658;48.908;9.140;2023-02-20T14:48:30;14.20;99.90
22984;DHT22;11658;48.908;9.140;2023-02-20T14:51:21;14.10;99.90
22984;DHT22;11658;48.908;9.140;2023-02-20T14:53:57;14.30;99.90
22984;DHT22;11658;48.908;9.140;2023-02-20T14:56:23;14.10;99.90
22984;DHT22;11658;48.908;9.140;2023-02-20T14:58:48;14.10;99.90
22984;DHT22;11658;48.908;9.140;2023-02-20T15:01:15;14.10;99.90
22984;DHT22;11658;48.908;9.140;2023-02-20T15:03:41;14.00;99.90
22984;DHT22;11658;48.908;9.140;2023-02-20T15:06:11;14.00;99.90
22984;DHT22;11658;48.908;9.140;2023-02-20T15:08:38;14.10;99.90
22984;DHT22;11658;48.908;9.140;2023-02-20T15:11:06;14.10;99.90
22984;DHT22;11658;48.908;9.140;2023-02-20T15:13:39;13.90;99.90
22984;DHT22;11658;48.908;9.140;2023-02-20T15:16:13;14.00;99.90
22984;DHT22;11658;48.908;9.140;2023-02-20T15:18:48;13.90;99.90
22984;DHT22;11658;48.908;9.140;2023-02-20T15:24:31;13.80;99.90
22984;DHT22;11658;48.908;9.140;2023-02-20T15:27:18;13.70;99.90
22984;DHT22;11658;48.908;9.140;2023-02-20T15:30:04;13.70;99.90
22984;DHT22;11658;48.908;9.140;2023-02-20T15:32:30;13.60;99.90
22984;DHT22;11658;48.908;9.140;2023-02-20T15:34:58;13.60;99.90
22984;DHT22;11658;48.908;9.140;2023-02-20T15:37:29;13.60;99.90
22984;DHT22;11658;48.908;9.140;2023-02-20T15:39:55;13.60;99.90
22984;DHT22;11658;48.908;9.140;2023-02-20T15:42:23;13.60;99.90
22984;DHT22;11658;48.908;9.140;2023-02-20T15:44:49;13.60;99.90
22984;DHT22;11658;48.908;9.140;2023-02-20T15:47:15;13.50;99.90
22984;DHT22;11658;48.908;9.140;2023-02-20T15:49:41;13.50;99.90
22984;DHT22;11658;48.908;9.140;2023-02-20T15:52:13;13.40;99.90
22984;DHT22;11658;48.908;9.140;2023-02-20T15:54:39;13.40;99.90
22984;DHT22;11658;48.908;9.140;2023-02-20T15:57:15;13.30;99.90
22984;DHT22;11658;48.908;9.140;2023-02-20T15:59:42;13.20;99.90
22984;DHT22;11658;48.908;9.140;2023-02-20T16:02:19;13.20;99.90
22984;DHT22;11658;48.908;9.140;2023-02-20T16:04:49;13.10;99.90
22984;DHT22;11658;48.908;9.140;2023-02-20T16:07:17;13.00;99.90
22984;DHT22;11658;48.908;9.140;2023-02-20T16:09:43;13.00;99.90
22984;DHT22;11658;48.908;9.140;2023-02-20T16:12:24;13.00;99.90
22984;DHT22;11658;48.908;9.140;2023-02-20T16:14:52;12.90;99.90
22984;DHT22;11658;48.908;9.140;2023-02-20T16:17:23;12.90;99.90
22984;DHT22;11658;48.908;9.140;2023-02-20T16:19:50;12.90;99.90
22984;DHT22;11658;48.908;9.140;2023-02-20T16:22:15;12.80;99.90
22984;DHT22;11658;48.908;9.140;2023-02-20T16:24:42;12.70;99.90
22984;DHT22;11658;48.908;9.140;2023-02-20T16:27:29;12.70;99.90
22984;DHT22;11658;48.908;9.140;2023-02-20T16:29:56;12.50;99.90
22984;DHT22;11658;48.908;9.140;2023-02-20T16:32:23;12.50;99.90
22984;DHT22;11658;48.908;9.140;2023-02-20T16:34:50;12.40;99.90
22984;DHT22;11658;48.908;9.140;2023-02-20T16:37:16;12.30;99.90
22984;DHT22;11658;48.908;9.140;2023-02-20T16:39:42;12.40;99.90
22984;DHT22;11658;48.908;9.140;2023-02-20T16:42:17;12.20;99.90
22984;DHT22;11658;48.908;9.140;2023-02-20T16:44:44;12.20;99.90
22984;DHT22;11658;48.908;9.140;2023-02-20T16:47:11;12.00;99.90
22984;DHT22;11658;48.908;9.140;2023-02-20T16:49:37;12.00;99.90
22984;DHT22;11658;48.908;9.140;2023-02-20T16:52:18;11.90;99.90
22984;DHT22;11658;48.908;9.140;2023-02-20T16:54:47;11.80;99.90
22984;DHT22;11658;48.908;9.140;2023-02-20T16:57:15;11.70;99.90
22984;DHT22;11658;48.908;9.140;2023-02-20T16:59:41;11.60;99.90
22984;DHT22;11658;48.908;9.140;2023-02-20T17:02:09;11.50;99.90
22984;DHT22;11658;48.908;9.140;2023-02-20T17:04:38;11.40;99.90
22984;DHT22;11658;48.908;9.140;2023-02-20T17:07:04;11.20;99.90
22984;DHT22;11658;48.908;9.140;2023-02-20T17:09:30;11.20;99.90
22984;DHT22;11658;48.908;9.140;2023-02-20T17:11:56;11.10;99.90
22984;DHT22;11658;48.908;9.140;2023-02-20T17:14:22;11.00;99.90
22984;DHT22;11658;48.908;9.140;2023-02-20T17:16:48;10.90;99.90
22984;DHT22;11658;48.908;9.140;2023-02-20T17:19:15;10.90;99.90
22984;DHT22;11658;48.908;9.140;2023-02-20T17:21:46;10.90;99.90
22984;DHT22;11658;48.908;9.140;2023-02-20T17:24:11;10.90;99.90
22984;DHT22;11658;48.908;9.140;2023-02-20T17:26:37;10.90;99.90
22984;DHT22;11658;48.908;9.140;2023-02-20T17:29:02;10.80;99.90
22984;DHT22;11658;48.908;9.140;2023-02-20T17:31:28;10.80;99.90
22984;DHT22;11658;48.908;9.140;2023-02-20T17:33:53;10.70;99.90
22984;DHT22;11658;48.908;9.140;2023-02-20T17:36:19;10.60;99.90
22984;DHT22;11658;48.908;9.140;2023-02-20T17:38:44;10.50;99.90
22984;DHT22;11658;48.908;9.140;2023-02-20T17:41:10;10.40;99.90
22984;DHT22;11658;48.908;9.140;2023-02-20T17:43:37;10.20;99.90
22984;DHT22;11658;48.908;9.140;2023-02-20T17:46:03;10.10;99.90
22984;DHT22;11658;48.908;9.140;2023-02-20T17:48:28;10.00;99.90
22984;DHT22;11658;48.908;9.140;2023-02-20T17:50:54;9.80;99.90
22984;DHT22;11658;48.908;9.140;2023-02-20T17:53:20;9.70;99.90
22984;DHT22;11658;48.908;9.140;2023-02-20T17:55:45;9.60;99.90
22984;DHT22;11658;48.908;9.140;2023-02-20T17:58:11;9.50;99.90
22984;DHT22;11658;48.908;9.140;2023-02-20T18:00:36;9.40;99.90
22984;DHT22;11658;48.908;9.140;2023-02-20T18:03:02;9.20;99.90
22984;DHT22;11658;48.908;9.140;2023-02-20T18:05:28;9.00;99.90
22984;DHT22;11658;48.908;9.140;2023-02-20T18:07:53;8.80;99.90
22984;DHT22;11658;48.908;9.140;2023-02-20T18:10:19;8.60;99.90
22984;DHT22;11658;48.908;9.140;2023-02-20T18:12:44;8.60;99.90
22984;DHT22;11658;48.908;9.140;2023-02-20T18:15:27;8.50;99.90
22984;DHT22;11658;48.908;9.140;2023-02-20T18:17:52;8.40;99.90
22984;DHT22;11658;48.908;9.140;2023-02-20T18:20:18;8.40;99.90
22984;DHT22;11658;48.908;9.140;2023-02-20T18:22:44;8.40;99.90
22984;DHT22;11658;48.908;9.140;2023-02-20T18:25:09;8.30;99.90
22984;DHT22;11658;48.908;9.140;2023-02-20T18:27:35;8.30;99.90
22984;DHT22;11658;48.908;9.140;2023-02-20T18:30:00;8.20;99.90
22984;DHT22;11658;48.908;9.140;2023-02-20T18:32:26;8.10;99.90
22984;DHT22;11658;48.908;9.140;2023-02-20T18:34:51;8.00;99.90
22984;DHT22;11658;48.908;9.140;2023-02-20T18:37:19;8.00;99.90
22984;DHT22;11658;48.908;9.140;2023-02-20T18:39:45;7.90;99.90
22984;DHT22;11658;48.908;9.140;2023-02-20T18:42:11;7.80;99.90
22984;DHT22;11658;48.908;9.140;2023-02-20T18:44:37;7.70;99.90
22984;DHT22;11658;48.908;9.140;2023-02-20T18:47:02;7.70;99.90
22984;DHT22;11658;48.908;9.140;2023-02-20T18:49:28;7.70;99.90
22984;DHT22;11658;48.908;9.140;2023-02-20T18:51:53;7.70;99.90
22984;DHT22;11658;48.908;9.140;2023-02-20T18:54:21;7.60;99.90
22984;DHT22;11658;48.908;9.140;2023-02-20T18:56:51;7.50;99.90
22984;DHT22;11658;48.908;9.140;2023-02-20T18:59:17;7.50;99.90
22984;DHT22;11658;48.908;9.140;2023-02-20T19:01:43;7.40;99.90
22984;DHT22;11658;48.908;9.140;2023-02-20T19:04:11;7.30;99.90
22984;DHT22;11658;48.908;9.140;2023-02-20T19:06:37;7.20;99.90
22984;DHT22;11658;48.908;9.140;2023-02-20T19:09:12;7.20;99.90
22984;DHT22;11658;48.908;9.140;2023-02-20T19:11:38;7.10;99.90
22984;DHT22;11658;48.908;9.140;2023-02-20T19:14:03;7.00;99.90
22984;DHT22;11658;48.908;9.140;2023-02-20T19:16:29;7.00;99.90
22984;DHT22;11658;48.908;9.140;2023-02-20T19:18:55;6.90;99.90
22984;DHT22;11658;48.908;9.140;2023-02-20T19:21:21;6.80;99.90
22984;DHT22;11658;48.908;9.140;2023-02-20T19:23:47;6.70;99.90
22984;DHT22;11658;48.908;9.140;2023-02-20T19:26:13;6.60;99.90
22984;DHT22;11658;48.908;9.140;2023-02-20T19:28:39;6.50;99.90
22984;DHT22;11658;48.908;9.140;2023-02-20T19:31:07;6.50;99.90
22984;DHT22;11658;48.908;9.140;2023-02-20T19:33:32;6.50;99.90
22984;DHT22;11658;48.908;9.140;2023-02-20T19:35:59;6.50;99.90
22984;DHT22;11658;48.908;9.140;2023-02-20T19:38:25;6.50;99.90
22984;DHT22;11658;48.908;9.140;2023-02-20T19:40:50;6.40;99.90
22984;DHT22;11658;48.908;9.140;2023-02-20T19:43:16;6.70;99.90
22984;DHT22;11658;48.908;9.140;2023-02-20T19:45:41;6.40;99.90
22984;DHT22;11658;48.908;9.140;2023-02-20T19:48:07;6.40;99.90
22984;DHT22;11658;48.908;9.140;2023-02-20T19:50:33;6.30;99.90
22984;DHT22;11658;48.908;9.140;2023-02-20T19:53:00;6.30;99.90
22984;DHT22;11658;48.908;9.140;2023-02-20T19:55:25;6.20;99.90
22984;DHT22;11658;48.908;9.140;2023-02-20T19:57:51;6.10;99.90
22984;DHT22;11658;48.908;9.140;2023-02-20T20:00:18;6.10;99.90
22984;DHT22;11658;48.908;9.140;2023-02-20T20:02:46;6.00;99.90
22984;DHT22;11658;48.908;9.140;2023-02-20T20:05:14;6.00;99.90
22984;DHT22;11658;48.908;9.140;2023-02-20T20:07:40;6.00;99.90
22984;DHT22;11658;48.908;9.140;2023-02-20T20:10:05;5.90;99.90
22984;DHT22;11658;48.908;9.140;2023-02-20T20:12:32;5.90;99.90
22984;DHT22;11658;48.908;9.140;2023-02-20T20:15:11;5.80;99.90
22984;DHT22;11658;48.908;9.140;2023-02-20T20:17:37;5.80;99.90
22984;DHT22;11658;48.908;9.140;2023-02-20T20:20:03;5.80;99.90
22984;DHT22;11658;48.908;9.140;2023-02-20T20:22:30;5.90;99.90
22984;DHT22;11658;48.908;9.140;2023-02-20T20:24:56;6.00;99.90
22984;DHT22;11658;48.908;9.140;2023-02-20T20:27:22;5.90;99.90
22984;DHT22;11658;48.908;9.140;2023-02-20T20:29:49;5.90;99.90
22984;DHT22;11658;48.908;9.140;2023-02-20T20:32:16;5.80;99.90
22984;DHT22;11658;48.908;9.140;2023-02-20T20:34:43;5.80;99.90
22984;DHT22;11658;48.908;9.140;2023-02-20T20:37:14;5.80;99.90
22984;DHT22;11658;48.908;9.140;2023-02-20T20:39:39;5.80;99.90
22984;DHT22;11658;48.908;9.140;2023-02-20T20:42:05;5.80;99.90
22984;DHT22;11658;48.908;9.140;2023-02-20T20:44:31;5.70;99.90
22984;DHT22;11658;48.908;9.140;2023-02-20T20:46:57;5.70;99.90
22984;DHT22;11658;48.908;9.140;2023-02-20T20:49:22;5.70;99.90
22984;DHT22;11658;48.908;9.140;2023-02-20T20:51:48;5.70;99.90
22984;DHT22;11658;48.908;9.140;2023-02-20T20:54:14;5.70;99.90
22984;DHT22;11658;48.908;9.140;2023-02-20T20:56:47;5.70;99.90
22984;DHT22;11658;48.908;9.140;2023-02-20T20:59:14;5.60;99.90
22984;DHT22;11658;48.908;9.140;2023-02-20T21:01:40;5.60;99.90
22984;DHT22;11658;48.908;9.140;2023-02-20T21:04:07;5.50;99.90
22984;DHT22;11658;48.908;9.140;2023-02-20T21:06:33;5.50;99.90
22984;DHT22;11658;48.908;9.140;2023-02-20T21:08:59;5.40;99.90
22984;DHT22;11658;48.908;9.140;2023-02-20T21:11:24;5.40;99.90
22984;DHT22;11658;48.908;9.140;2023-02-20T21:13:50;5.40;99.90
22984;DHT22;11658;48.908;9.140;2023-02-20T21:16:16;5.30;99.90
22984;DHT22;11658;48.908;9.140;2023-02-20T21:18:43;5.30;99.90
22984;DHT22;11658;48.908;9.140;2023-02-20T21:21:09;5.20;99.90
22984;DHT22;11658;48.908;9.140;2023-02-20T21:23:35;5.20;99.90
22984;DHT22;11658;48.908;9.140;2023-02-20T21:26:01;5.20;99.90
22984;DHT22;11658;48.908;9.140;2023-02-20T21:28:26;5.20;99.90
22984;DHT22;11658;48.908;9.140;2023-02-20T21:30:52;5.20;99.90
22984;DHT22;11658;48.908;9.140;2023-02-20T21:33:18;5.10;99.90
22984;DHT22;11658;48.908;9.140;2023-02-20T21:35:43;5.10;99.90